Weather observations for the past three days for
Monticello White County Airport
Imperial (Metric)
Date Time (edt) Wind (mph) Vis. (mi.) Weather Sky Cond. Temperature (ºF) Relative Humidity Wind Chill (°F) Heat Index (°F) Pressure Precipitation (in)
Air Dwpt 6 hour altimeter (in) sea level (mb) 1 hr 3 hr 6 hr
Max. Min.
01 16:55 SW 7 10.00 Fair CLR 92.7 73.6 54% 102 29.99 0.0
01 16:35 SW 7 10.00 Fair CLR 92.5 72.7 53% 101 29.99 0.0
01 16:15 SW 7 10.00 Fair CLR 92.3 73 53% 101 29.99 0.0
01 15:55 SW 8 10.00 Fair CLR 92.3 73 53% 101 30 0.0
01 15:35 SW 7 10.00 Fair CLR 91.6 72.9 54% 100 30 0.0
01 15:15 SW 8 10.00 Fair CLR 90.9 72.3 55% 99 30.01 0.0
01 14:55 W 9 10.00 Fair CLR 91.4 72.5 54% 99 30.01 0.0
01 14:35 SW 7 10.00 Fair CLR 90.7 72.1 55% 98 30.01 0.0
01 14:15 SW 8 10.00 Fair CLR 90.5 72.9 56% 99 30.01 0.0
01 13:55 SW 8 10.00 Fair CLR 89.2 71.8 89.6 72.5 56% 96 30.01 0.0
01 13:35 SW 7 10.00 Fair CLR 89.4 72.1 57% 97 30.01 0.0
01 13:15 W 8 10.00 Fair CLR 88.5 71.4 57% 95 30.02 0.0
01 12:55 SW 7 10.00 Fair CLR 87.4 71.6 59% 94 30.02 0.0
01 12:35 SW 8 10.00 Fair CLR 85.8 71.2 62% 91 30.03 0.0
01 12:15 SW 7 10.00 Fair CLR 84.9 70.9 63% 90 30.03 0.0
01 11:55 SW 8 10.00 Fair CLR 84.2 70 62% 89 30.03 0.0
01 11:35 SW 9 10.00 Fair CLR 84 70 63% 88 30.03 0.0
01 11:15 SW 7 10.00 Fair CLR 83.5 69.6 63% 87 30.03 0.0
01 10:55 SW 7 10.00 Fair CLR 82.8 69.4 64% 86 30.03 0.0
01 10:35 SW 9 10.00 Fair CLR 82 69.6 66% 86 30.03 0.0
01 10:15 SW 7 10.00 Fair CLR 80.8 69.4 69% 84 30.03 0.0
01 09:55 S 9 10.00 Fair CLR 79.2 69.6 73% 82 30.03 0.0
01 09:35 S 7 10.00 Fair CLR 77.7 69.3 75% 80 30.03 0.0
01 09:15 S 5 10.00 Fair CLR 76.3 69.1 78% 78 30.04 0.0
01 08:55 S 3 10.00 Fair CLR 75.2 68.5 80% 76 30.04 0.0
01 08:35 S 3 10.00 Fair CLR 74.1 68 81% 30.03 0.0
01 08:15 S 5 10.00 Fair CLR 72.9 68 85% 30.03 0.0
01 07:55 S 5 10.00 Fair CLR 72.3 67.6 76.3 70.9 85% 30.02 0.0
01 07:35 S 5 10.00 Fair CLR 71.2 67.1 87% 30.02 0.0
01 07:15 Calm 10.00 Fair CLR 70.9 66.7 87% 30.01 0.0
01 06:55 Calm 10.00 Fair CLR 71.6 66.7 85% 30.01 0.0
01 06:35 S 3 10.00 Fair CLR 72.7 67.1 83% 30.01 0.0
01 06:15 SW 5 10.00 Fair CLR 73.4 67.1 81% 30.01 0.0
01 05:55 SW 5 10.00 Fair CLR 73.4 66.7 80% 30.01 0.0
01 05:35 SW 5 10.00 Fair CLR 72.9 66.7 81% 30.01 0.0
01 05:15 S 5 10.00 Fair CLR 73 66.6 80% 30.01 0.0
01 04:55 S 6 10.00 Fair CLR 73.4 66.2 78% 30 0.0
01 04:35 SW 6 10.00 Fair CLR 73.6 65.7 76% 30 0.0
01 04:15 S 6 10.00 Fair CLR 73.6 65.3 75% 30 0.0
01 03:55 SW 6 10.00 Fair CLR 73.9 64.9 74% 29.99 0.0
01 03:35 S 7 10.00 Fair CLR 74.3 64.8 72% 29.99 0.0
01 03:15 S 6 10.00 Fair CLR 74.5 64.6 71% 29.99 0.0
01 02:55 S 6 10.00 Fair CLR 74.5 64.4 71% 29.99 0.0
01 02:35 S 5 10.00 Fair CLR 75.2 64.4 69% 77 29.99 0.0
01 02:15 S 6 10.00 Fair CLR 75.6 64.4 68% 77 30 0.0
01 01:55 S 7 10.00 Fair CLR 76.3 64.4 84 75.9 67% 78 30 0.0
01 01:35 S 8 10.00 Fair CLR 76.6 64.4 66% 78 29.99 0.0
01 01:15 S 7 10.00 Fair CLR 76.6 64.8 67% 78 29.99 0.0
01 00:55 S 8 10.00 Fair CLR 76.3 65.3 69% 78 29.99 0.0
01 00:35 SW 6 10.00 Fair CLR 76.3 65.5 69% 78 30 0.0
01 00:15 SW 6 10.00 Fair CLR 76.6 65.7 69% 78 29.99 0.0
31 23:55 SW 5 10.00 Fair CLR 75.9 66.2 72% 77 29.99 0.0
31 23:35 S 5 10.00 Fair CLR 76.8 66.6 71% 79 30 0.0
31 23:15 S 7 10.00 Fair CLR 78.1 66.6 68% 80 29.99 0.0
31 22:55 S 5 10.00 Fair CLR 77 67.1 72% 79 30 0.0
31 22:35 S 5 10.00 Fair CLR 76.3 67.1 73% 78 30 0.0
31 22:15 SE 3 10.00 Partly Cloudy SCT110 79.3 66.6 65% 81 30.01 0.0
31 21:55 SE 3 10.00 Mostly Cloudy BKN110 79.7 66.4 64% 82 30.01 0.0
31 21:35 S 3 10.00 Partly Cloudy SCT120 80.6 65.3 60% 83 30.01 0.0
31 21:15 S 5 10.00 Partly Cloudy SCT120 80.8 65.5 60% 83 30 0.0
31 20:55 S 3 10.00 Partly Cloudy SCT120 82.2 64.8 56% 84 29.99 0.0
31 20:35 Calm 10.00 Partly Cloudy SCT120 81.9 65.3 57% 84 29.99 0.0
31 20:15 S 3 10.00 Fair CLR 82.8 65.5 56% 85 29.99 0.0
31 19:55 S 5 10.00 Fair CLR 84 65.8 90.7 84 54% 86 29.99 0.0
31 19:35 S 7 10.00 Fair CLR 85.3 66.2 53% 88 29.98 0.0
31 19:15 S 8 10.00 Fair CLR 86.4 66.2 51% 89 29.97 0.0
31 18:55 S 10 10.00 Fair CLR 87.3 66.6 50% 90 29.98 0.0
31 18:35 S 9 G 16 10.00 Fair CLR 87.8 66.6 49% 91 29.98 0.0
31 18:15 S 12 G 16 10.00 Fair CLR 88.9 67.3 49% 92 29.98 0.0
31 17:55 S 10 10.00 Fair CLR 89.4 66.2 46% 92 29.98 0.0
31 17:35 S 15 10.00 Fair CLR 90 67.6 48% 94 29.99 0.0
31 17:15 S 13 G 17 10.00 Fair CLR 90.1 67.1 47% 93 29.99 0.0
31 16:55 S 14 G 20 10.00 Fair CLR 90.3 66.2 45% 93 29.99 0.0
31 16:35 S 15 G 20 10.00 Fair CLR 90.7 67.3 46% 94 29.99 0.0
31 16:15 S 12 G 16 10.00 Fair CLR 90 67.8 48% 94 29.99 0.0
31 15:55 SW 14 10.00 Fair CLR 89.4 67.3 48% 93 30 0.0
31 15:35 S 13 10.00 Fair CLR 89.8 67.1 47% 93 30.01 0.0
31 15:15 S 10 10.00 Fair CLR 89.8 67.5 48% 93 30.02 0.0
31 14:55 S 14 10.00 Fair CLR 90 67.3 47% 93 30.03 0.0
31 14:35 S 12 10.00 Fair CLR 89.4 67.8 49% 93 30.03 0.0
31 14:15 S 12 G 16 10.00 Fair CLR 88.7 68.2 51% 93 30.04 0.0
31 13:55 S 8 10.00 Fair CLR 88 67.1 88 72 50% 91 30.04 0.0
31 13:35 S 10 10.00 Fair CLR 87.3 67.1 51% 90 30.05 0.0
31 13:15 SW 9 10.00 Fair CLR 86.2 66.7 52% 89 30.06 0.0
31 12:55 Calm 10.00 Fair CLR 82.4 68 62% 85 30.07 0.0
31 12:35 Calm 10.00 Fair CLR 82.4 66 58% 85 30.07 0.0
31 12:15 Calm 10.00 Fair CLR 81.9 65.8 58% 84 30.07 0.0
31 11:55 Calm 10.00 Fair CLR 80.4 67.6 65% 83 30.07 0.0
31 11:35 Calm 10.00 Fair CLR 80.1 67.1 65% 82 30.07 0.0
31 11:15 Calm 10.00 Fair CLR 77.9 66.9 69% 80 30.07 0.0
31 10:55 Calm 10.00 Fair CLR 78.3 67.3 69% 80 30.07 0.0
31 10:35 Calm 10.00 Fair CLR 77 66.7 71% 79 30.07 0.0
31 10:15 Calm 10.00 Partly Cloudy SCT120 74.8 66.4 75% 30.06 0.0
31 09:55 Calm 10.00 Fair CLR 74.3 65.5 74% 30.06 0.0
31 09:35 Calm 10.00 Fair CLR 73.6 64.9 74% 30.05 0.0
31 09:15 Calm 10.00 Fair CLR 72.7 64.4 75% 30.06 0.0
31 08:55 Calm 10.00 Fair CLR 72.7 64 74% 30.05 0.0
31 08:35 Calm 10.00 Fair CLR 72.5 63.9 74% 30.04 0.0
31 08:15 Calm 10.00 Fair CLR 72.5 63.7 74% 30.03 0.0
31 07:55 Calm 10.00 Fair CLR 71.8 63.9 74.7 71.6 76% 30.03 0.0
31 07:35 Calm 10.00 Fair CLR 72.5 64 75% 30.02 0.0
31 07:15 Calm 10.00 Fair CLR 72.1 63.9 75% 30.02 0.0
31 06:55 Calm 10.00 Partly Cloudy SCT120 72.1 64.2 76% 30.02 0.0
31 06:35 Calm 10.00 Fair CLR 72.9 64.2 74% 30.02 0.0
31 06:15 S 7 10.00 Fair CLR 73.2 64 73% 30.02 0.0
31 05:55 Calm 10.00 Fair CLR 72.7 64.4 75% 30.02 0.0
31 05:35 Calm 10.00 Fair CLR 72.7 64.6 76% 30.02 0.0
31 05:15 S 3 10.00 Fair CLR 73.6 64.8 74% 30.02 0.0
31 04:55 S 5 10.00 Fair CLR 73 65.8 78% 30.03 0.0
31 04:35 Calm 10.00 Fair CLR 74.3 66.2 76% 30.02 0.0
31 04:15 SE 5 10.00 Fair CLR 74.5 65.5 74% 30.02 0.0
31 03:55 S 3 10.00 Fair CLR 74.5 66.2 76% 30.02 0.0
31 03:35 S 3 10.00 Fair CLR 73.6 67.3 81% 30.02 0.0
31 03:15 Calm 10.00 Fair CLR 73.4 67.3 81% 30.02 0.0
31 02:55 Calm 10.00 Fair CLR 73.6 67.3 81% 30.02 0.0
31 02:35 Calm 10.00 Fair CLR 73.9 67.5 80% 30.02 0.0
31 01:55 Calm 10.00 Fair CLR 73.8 68.2 78.1 71.6 83% 30.03 0.0
31 01:35 Calm 10.00 Fair CLR 73.6 69.3 86% 30.03 0.0
31 00:55 Calm 10.00 Fair CLR 71.8 68.9 91% 30.04 0.0
31 00:35 Calm 10.00 Partly Cloudy SCT120 71.8 68.7 90% 30.04 0.0
31 00:15 Calm 10.00 Fair CLR 72.9 68.9 87% 30.04 0.0
30 23:35 Calm 10.00 Fair CLR 73.8 68.9 85% 30.03 0.0
30 22:55 Calm 10.00 Fair CLR 76.3 69.4 79% 77 30.02 0.0
30 22:35 Calm 10.00 Fair CLR 76.6 69.3 78% 78 30.03 0.0
30 22:15 SE 6 10.00 Fair CLR 76.1 70.5 83% 77 30.03 0.0
30 21:55 Calm 10.00 Fair CLR 76.3 70.3 82% 77 30.03 0.0
30 21:35 SE 3 10.00 Fair CLR 76.3 70.3 82% 77 30.03 0.0
30 21:15 SE 3 10.00 Fair CLR 76.5 70.3 81% 78 30.03 0.0
30 20:55 SE 5 10.00 Fair CLR 76.1 70 81% 77 30.03 0.0
30 20:35 E 3 10.00 Fair CLR 76.1 69.8 81% 77 30.02 0.0
30 20:15 Calm 10.00 Fair CLR 77 69.8 79% 79 30.02 0.0
30 19:55 Calm 10.00 Fair CLR 77.9 69.4 82.8 75.7 75% 80 30.03 0.0
30 19:35 Calm 10.00 Fair CLR 78.3 70.5 77% 81 30.03 0.0
30 19:15 Calm 10.00 Fair CLR 78.8 71.6 79% 82 30.03 0.0
30 18:55 Calm 10.00 Fair CLR 79.3 70.7 75% 82 30.04 0.0
30 18:35 Calm 10.00 Fair CLR 80.2 71.1 74% 84 30.04 0.0
30 18:15 Calm 10.00 Fair CLR 81.1 70 69% 85 30.04 0.0
30 17:55 Calm 10.00 Fair CLR 80.8 68.9 67% 84 30.04 0.0
30 17:35 Calm 10.00 Fair CLR 81 68.4 66% 84 30.04 0.0
30 17:15 Calm 10.00 Fair CLR 81.5 68.4 64% 84 30.04 0.0
30 16:55 S 6 10.00 Fair CLR 81.1 68 64% 84 30.04 0.0
30 16:35 S 7 10.00 Fair CLR 80.4 67.5 65% 83 30.04 0.0
30 16:15 S 9 10.00 Fair CLR 79.7 66.4 64% 82 30.03 0.0
30 15:55 S 12 G 17 10.00 Fair CLR 79.7 65.5 62% 82 30.04 0.0
30 15:35 S 15 G 18 10.00 Fair CLR 81.5 65.5 58% 83 30.05 0.0
30 15:15 S 15 G 20 10.00 Fair CLR 82.6 66.6 59% 85 30.06 0.0
30 14:55 S 13 10.00 Fair CLR 81.1 67.3 63% 84 30.06 0.0
30 14:35 S 10 G 17 10.00 Fair CLR 80.8 67.6 64% 83 30.07 0.0
30 14:15 S 10 10.00 Fair CLR 78.6 66.7 67% 81 30.07 0.0
30 13:55 S 6 10.00 Fair CLR 75.6 65.5 75.6 68.4 71% 77 30.06 0.0
30 13:35 Calm 10.00 Fair CLR 74.7 64.8 71% 30.07 0.0
30 13:15 Calm 10.00 Partly Cloudy SCT075 SCT085 SCT110 74.5 64.6 71% 30.07 0.0
30 12:55 Calm 10.00 Light Rain SCT075 SCT085 SCT110 74.1 64.6 72% 30.09 0.0
30 12:35 Calm 10.00 Fair CLR 74.3 64.8 72% 30.11 0.0
30 12:15 Calm 10.00 Fair CLR 73.6 64.8 74% 30.11 0.0
30 11:55 Calm 10.00 Fair CLR 73 64.8 75% 30.12 0.0
30 11:35 Calm 10.00 Fair CLR 72.5 64.6 76% 30.12 0.0
30 11:15 Calm 10.00 Fair CLR 71.4 64.2 78% 30.12 0.0
30 10:55 Calm 10.00 Partly Cloudy SCT120 70.9 64.2 80% 30.11 0.0
30 10:35 Calm 10.00 Partly Cloudy SCT120 69.8 64.6 84% 30.11 0.0
30 10:15 Calm 10.00 Mostly Cloudy SCT055 SCT085 BKN120 69.8 63.7 81% 30.11 0.0
30 09:55 Calm 10.00 Mostly Cloudy BKN120 70 62.6 78% 30.1 0.0
30 09:35 Calm 10.00 Partly Cloudy SCT120 70.3 61.9 75% 30.08 0.0
30 09:15 Calm 10.00 Mostly Cloudy BKN120 69.8 61.3 75% 30.08 0.0
30 08:55 Calm 10.00 Mostly Cloudy BKN120 69.4 60.8 74% 30.08 0.0
30 08:35 Calm 10.00 Partly Cloudy SCT120 68.9 60.6 75% 30.07 0.0
30 08:15 Calm 10.00 Partly Cloudy SCT120 68.4 60.8 77% 30.07 0.0
30 07:55 Calm 10.00 Mostly Cloudy BKN120 68.9 60.1 69.4 67.1 74% 30.06 0.0
30 07:35 Calm 10.00 Mostly Cloudy BKN120 68.9 60.4 75% 30.06 0.0
30 07:15 Calm 10.00 Mostly Cloudy BKN120 68.9 60.4 75% 30.06 0.0
30 06:55 Calm 10.00 Mostly Cloudy BKN120 68.7 60.1 74% 30.06 0.0
30 06:35 Calm 10.00 Overcast OVC120 68.2 59.7 75% 30.06 0.0
30 06:15 Calm 10.00 Overcast OVC120 67.6 59.7 76% 30.07 0.0
30 05:55 Calm 10.00 Overcast OVC120 69.1 59.5 72% 30.07 0.0
30 05:35 Calm 10.00 Mostly Cloudy BKN120 69.1 59 70% 30.07 0.0
30 05:15 Calm 10.00 Mostly Cloudy BKN120 68.4 59 72% 30.06 0.0
30 04:55 Calm 10.00 Overcast OVC120 67.6 59 74% 30.06 0.0
30 04:35 Calm 10.00 Overcast OVC120 67.1 58.8 75% 30.06 0.0
30 04:15 Calm 10.00 Mostly Cloudy BKN110 68 58.5 72% 30.05 0.0
30 03:55 Calm 10.00 Partly Cloudy SCT120 68.2 58.3 71% 30.06 0.0
30 03:35 Calm 10.00 Overcast OVC120 68.4 59 72% 30.06 0.0
30 03:15 Calm 10.00 Mostly Cloudy BKN110 68.4 59.7 74% 30.07 0.0
30 02:55 Calm 10.00 Fair CLR 68.4 59.9 75% 30.07 0.0
30 02:35 Calm 10.00 Partly Cloudy SCT120 68.7 59.9 74% 30.07 0.0
30 02:15 Calm 10.00 Partly Cloudy SCT120 68.9 60.1 74% 30.08 0.0
30 01:55 Calm 10.00 Partly Cloudy SCT120 68.5 60.1 75.6 66.2 75% 30.09 0.0
30 01:35 Calm 10.00 Partly Cloudy SCT120 68.7 60.8 76% 30.09 0.0
30 01:15 Calm 10.00 Fair CLR 67.3 61.2 81% 30.1 0.0
30 00:55 Calm 10.00 Partly Cloudy SCT120 68.2 61.3 79% 30.1 0.0
30 00:35 Calm 10.00 Fair CLR 67.6 61.5 81% 30.1 0.0
30 00:15 Calm 10.00 Fair CLR 68.7 61.2 77% 30.09 0.0
29 23:55 Calm 10.00 Fair CLR 68.7 61.2 77% 30.09 0.0
29 23:35 Calm 10.00 Fair CLR 68.7 60.8 76% 30.09 0.0
29 23:15 Calm 10.00 Fair CLR 70.5 60.3 70% 30.09 0.0
29 22:55 Calm 10.00 Fair CLR 69.1 61.3 76% 30.1 0.0
29 22:35 Calm 10.00 Fair CLR 70.9 60.3 69% 30.09 0.0
29 22:15 Calm 10.00 Fair CLR 71.2 60.3 68% 30.08 0.0
29 21:55 Calm 10.00 Fair CLR 71.1 60.8 70% 30.08 0.0
29 21:35 Calm 10.00 Fair CLR 70 61.2 74% 30.08 0.0
29 21:15 Calm 10.00 Fair CLR 71.1 61.5 72% 30.08 0.0
29 20:55 Calm 10.00 Fair CLR 74.3 59.9 61% 30.07 0.0
29 20:35 Calm 10.00 Fair CLR 75 60.8 61% 77 30.07 0.0
29 20:15 Calm 10.00 Fair CLR 75.2 61.3 62% 77 30.07 0.0
29 19:55 Calm 10.00 Fair CLR 75.4 61.9 81.5 75.2 63% 77 30.07 0.0
29 19:35 Calm 10.00 Fair CLR 76.1 60.6 59% 78 30.09 0.0
29 19:15 Calm 10.00 Fair CLR 77 60.1 56% 79 30.1 0.0
29 18:55 Calm 10.00 Fair CLR 77.4 61.2 58% 79 30.1 0.0
29 18:35 Calm 10.00 Fair CLR 77.9 60.6 55% 79 30.1 0.0
29 18:15 Calm 10.00 Fair CLR 78.4 60.4 54% 80 30.1 0.0
29 17:55 Calm 10.00 Partly Cloudy SCT050 78.8 59.9 52% 80 30.1 0.0
29 17:35 Calm 10.00 Partly Cloudy SCT050 78.8 59.7 52% 80 30.11 0.0
29 17:15 Calm 10.00 Partly Cloudy SCT050 79.5 60.3 52% 81 30.11 0.0
29 16:55 Calm 10.00 Partly Cloudy SCT050 80.6 60.3 50% 81 30.12 0.0
Date Time (edt) Wind (mph) Vis. (mi.) Weather Sky Cond. Air Dwpt Max. Min. Relative Humidity Wind Chill (°F) Heat Index (°F) altimeter (in) sea level (mb) 1 hr 3 hr 6 hr
6 hour
Temperature (ºF) Pressure Precipitation (in)